sensor_id;sensor_type;location;lat;lon;timestamp;temperature;humidity
8862;DHT22;4799;50.996;4.754;2024-02-15T00:02:22;12.80;99.90
8862;DHT22;4799;50.996;4.754;2024-02-15T00:04:48;12.80;99.90
8862;DHT22;4799;50.996;4.754;2024-02-15T00:07:14;12.80;99.90
8862;DHT22;4799;50.996;4.754;2024-02-15T00:09:40;12.80;99.90
8862;DHT22;4799;50.996;4.754;2024-02-15T00:12:05;12.80;99.90
8862;DHT22;4799;50.996;4.754;2024-02-15T00:14:31;12.80;99.90
8862;DHT22;4799;50.996;4.754;2024-02-15T00:16:57;12.80;99.90
8862;DHT22;4799;50.996;4.754;2024-02-15T00:19:23;12.80;99.90
8862;DHT22;4799;50.996;4.754;2024-02-15T00:21:49;12.80;99.90
8862;DHT22;4799;50.996;4.754;2024-02-15T00:24:15;12.80;99.90
8862;DHT22;4799;50.996;4.754;2024-02-15T00:26:41;12.80;99.90
8862;DHT22;4799;50.996;4.754;2024-02-15T00:29:08;12.80;99.90
8862;DHT22;4799;50.996;4.754;2024-02-15T00:31:37;12.80;99.90
8862;DHT22;4799;50.996;4.754;2024-02-15T00:34:06;12.80;99.90
8862;DHT22;4799;50.996;4.754;2024-02-15T00:36:34;12.80;99.90
8862;DHT22;4799;50.996;4.754;2024-02-15T00:38:59;12.80;99.90
8862;DHT22;4799;50.996;4.754;2024-02-15T00:41:25;12.80;99.90
8862;DHT22;4799;50.996;4.754;2024-02-15T00:43:51;12.80;99.90
8862;DHT22;4799;50.996;4.754;2024-02-15T00:46:19;12.80;99.90
8862;DHT22;4799;50.996;4.754;2024-02-15T00:48:45;12.80;99.90
8862;DHT22;4799;50.996;4.754;2024-02-15T00:51:11;12.80;99.90
8862;DHT22;4799;50.996;4.754;2024-02-15T00:53:37;12.80;99.90
8862;DHT22;4799;50.996;4.754;2024-02-15T00:56:03;12.80;99.90
8862;DHT22;4799;50.996;4.754;2024-02-15T00:58:30;12.90;99.90
8862;DHT22;4799;50.996;4.754;2024-02-15T01:00:55;12.90;99.90
8862;DHT22;4799;50.996;4.754;2024-02-15T01:03:21;12.90;99.90
8862;DHT22;4799;50.996;4.754;2024-02-15T01:05:48;12.90;99.90
8862;DHT22;4799;50.996;4.754;2024-02-15T01:08:14;12.90;99.90
8862;DHT22;4799;50.996;4.754;2024-02-15T01:10:40;12.90;99.90
8862;DHT22;4799;50.996;4.754;2024-02-15T01:13:05;12.90;99.90
8862;DHT22;4799;50.996;4.754;2024-02-15T01:15:31;12.90;99.90
8862;DHT22;4799;50.996;4.754;2024-02-15T01:17:57;13.00;99.90
8862;DHT22;4799;50.996;4.754;2024-02-15T01:20:23;13.00;99.90
8862;DHT22;4799;50.996;4.754;2024-02-15T01:22:48;12.90;99.90
8862;DHT22;4799;50.996;4.754;2024-02-15T01:25:15;12.90;99.90
8862;DHT22;4799;50.996;4.754;2024-02-15T01:27:42;13.00;99.90
8862;DHT22;4799;50.996;4.754;2024-02-15T01:30:08;13.00;99.90
8862;DHT22;4799;50.996;4.754;2024-02-15T01:32:34;12.90;99.90
8862;DHT22;4799;50.996;4.754;2024-02-15T01:35:00;12.90;99.90
8862;DHT22;4799;50.996;4.754;2024-02-15T01:37:26;12.90;99.90
8862;DHT22;4799;50.996;4.754;2024-02-15T01:39:51;13.00;99.90
8862;DHT22;4799;50.996;4.754;2024-02-15T01:42:18;12.90;99.90
8862;DHT22;4799;50.996;4.754;2024-02-15T01:44:44;12.90;99.90
8862;DHT22;4799;50.996;4.754;2024-02-15T01:47:11;12.90;99.90
8862;DHT22;4799;50.996;4.754;2024-02-15T01:49:37;13.00;99.90
8862;DHT22;4799;50.996;4.754;2024-02-15T01:52:05;13.00;99.90
8862;DHT22;4799;50.996;4.754;2024-02-15T01:54:35;12.90;99.90
8862;DHT22;4799;50.996;4.754;2024-02-15T01:57:02;13.00;99.90
8862;DHT22;4799;50.996;4.754;2024-02-15T01:59:28;12.90;99.90
8862;DHT22;4799;50.996;4.754;2024-02-15T02:01:54;12.90;99.90
8862;DHT22;4799;50.996;4.754;2024-02-15T02:04:21;12.80;99.90
8862;DHT22;4799;50.996;4.754;2024-02-15T02:06:46;12.80;99.90
8862;DHT22;4799;50.996;4.754;2024-02-15T02:09:13;12.80;99.90
8862;DHT22;4799;50.996;4.754;2024-02-15T02:11:40;12.80;99.90
8862;DHT22;4799;50.996;4.754;2024-02-15T02:14:06;12.80;99.90
8862;DHT22;4799;50.996;4.754;2024-02-15T02:16:32;12.80;99.90
8862;DHT22;4799;50.996;4.754;2024-02-15T02:18:58;12.90;99.90
8862;DHT22;4799;50.996;4.754;2024-02-15T02:21:28;12.90;99.90
8862;DHT22;4799;50.996;4.754;2024-02-15T02:23:58;12.90;99.90
8862;DHT22;4799;50.996;4.754;2024-02-15T02:26:24;12.90;99.90
8862;DHT22;4799;50.996;4.754;2024-02-15T02:28:51;12.80;99.90
8862;DHT22;4799;50.996;4.754;2024-02-15T02:31:19;12.80;99.90
8862;DHT22;4799;50.996;4.754;2024-02-15T02:33:54;12.90;99.90
8862;DHT22;4799;50.996;4.754;2024-02-15T02:36:20;12.90;99.90
8862;DHT22;4799;50.996;4.754;2024-02-15T02:38:47;12.90;99.90
8862;DHT22;4799;50.996;4.754;2024-02-15T02:41:16;12.90;99.90
8862;DHT22;4799;50.996;4.754;2024-02-15T02:43:41;12.90;99.90
8862;DHT22;4799;50.996;4.754;2024-02-15T02:46:11;12.90;99.90
8862;DHT22;4799;50.996;4.754;2024-02-15T02:48:38;12.90;99.90
8862;DHT22;4799;50.996;4.754;2024-02-15T02:51:04;12.90;99.90
8862;DHT22;4799;50.996;4.754;2024-02-15T02:53:29;12.90;99.90
8862;DHT22;4799;50.996;4.754;2024-02-15T02:55:58;12.90;99.90
8862;DHT22;4799;50.996;4.754;2024-02-15T02:58:24;12.90;99.90
8862;DHT22;4799;50.996;4.754;2024-02-15T03:00:51;12.90;99.90
8862;DHT22;4799;50.996;4.754;2024-02-15T03:03:17;12.90;99.90
8862;DHT22;4799;50.996;4.754;2024-02-15T03:05:44;12.90;99.90
8862;DHT22;4799;50.996;4.754;2024-02-15T03:08:14;13.00;99.90
8862;DHT22;4799;50.996;4.754;2024-02-15T03:10:39;12.90;99.90
8862;DHT22;4799;50.996;4.754;2024-02-15T03:13:06;12.90;99.90
8862;DHT22;4799;50.996;4.754;2024-02-15T03:15:35;13.00;99.90
8862;DHT22;4799;50.996;4.754;2024-02-15T03:18:01;12.90;99.90
8862;DHT22;4799;50.996;4.754;2024-02-15T03:20:32;12.90;99.90
8862;DHT22;4799;50.996;4.754;2024-02-15T03:23:00;12.80;99.90
8862;DHT22;4799;50.996;4.754;2024-02-15T03:25:27;12.70;99.90
8862;DHT22;4799;50.996;4.754;2024-02-15T03:28:00;12.70;99.90
8862;DHT22;4799;50.996;4.754;2024-02-15T03:30:31;12.70;99.90
8862;DHT22;4799;50.996;4.754;2024-02-15T03:32:57;12.60;99.90
8862;DHT22;4799;50.996;4.754;2024-02-15T03:35:25;12.60;99.90
8862;DHT22;4799;50.996;4.754;2024-02-15T03:37:52;12.60;99.90
8862;DHT22;4799;50.996;4.754;2024-02-15T03:40:19;12.60;99.90
8862;DHT22;4799;50.996;4.754;2024-02-15T03:42:45;12.60;99.90
8862;DHT22;4799;50.996;4.754;2024-02-15T03:45:12;12.60;99.90
8862;DHT22;4799;50.996;4.754;2024-02-15T03:47:38;12.60;99.90
8862;DHT22;4799;50.996;4.754;2024-02-15T03:50:08;12.60;99.90
8862;DHT22;4799;50.996;4.754;2024-02-15T03:52:35;12.50;99.90
8862;DHT22;4799;50.996;4.754;2024-02-15T03:55:01;12.50;99.90
8862;DHT22;4799;50.996;4.754;2024-02-15T03:57:30;12.50;99.90
8862;DHT22;4799;50.996;4.754;2024-02-15T03:59:55;12.50;99.90
8862;DHT22;4799;50.996;4.754;2024-02-15T04:02:25;12.50;99.90
8862;DHT22;4799;50.996;4.754;2024-02-15T04:04:54;12.50;99.90
8862;DHT22;4799;50.996;4.754;2024-02-15T04:07:21;12.50;99.90
8862;DHT22;4799;50.996;4.754;2024-02-15T04:09:48;12.50;99.90
8862;DHT22;4799;50.996;4.754;2024-02-15T04:12:14;12.40;99.90
8862;DHT22;4799;50.996;4.754;2024-02-15T04:14:41;12.50;99.90
8862;DHT22;4799;50.996;4.754;2024-02-15T04:17:07;12.40;99.90
8862;DHT22;4799;50.996;4.754;2024-02-15T04:19:33;12.50;99.90
8862;DHT22;4799;50.996;4.754;2024-02-15T04:21:59;12.40;99.90
8862;DHT22;4799;50.996;4.754;2024-02-15T04:24:26;12.40;99.90
8862;DHT22;4799;50.996;4.754;2024-02-15T04:26:52;12.40;99.90
8862;DHT22;4799;50.996;4.754;2024-02-15T04:29:18;12.40;99.90
8862;DHT22;4799;50.996;4.754;2024-02-15T04:31:46;12.40;99.90
8862;DHT22;4799;50.996;4.754;2024-02-15T04:34:17;12.40;99.90
8862;DHT22;4799;50.996;4.754;2024-02-15T04:36:48;12.40;99.90
8862;DHT22;4799;50.996;4.754;2024-02-15T04:39:21;12.40;99.90
8862;DHT22;4799;50.996;4.754;2024-02-15T04:41:55;12.40;99.90
8862;DHT22;4799;50.996;4.754;2024-02-15T04:44:21;12.40;99.90
8862;DHT22;4799;50.996;4.754;2024-02-15T04:46:48;12.40;99.90
8862;DHT22;4799;50.996;4.754;2024-02-15T04:49:15;12.40;99.90
8862;DHT22;4799;50.996;4.754;2024-02-15T04:51:41;12.40;99.90
8862;DHT22;4799;50.996;4.754;2024-02-15T04:54:07;12.40;99.90
8862;DHT22;4799;50.996;4.754;2024-02-15T04:56:34;12.40;99.90
8862;DHT22;4799;50.996;4.754;2024-02-15T04:59:01;12.40;99.90
8862;DHT22;4799;50.996;4.754;2024-02-15T05:01:27;12.40;99.90
8862;DHT22;4799;50.996;4.754;2024-02-15T05:03:54;12.40;99.90
8862;DHT22;4799;50.996;4.754;2024-02-15T05:06:21;12.40;99.90
8862;DHT22;4799;50.996;4.754;2024-02-15T05:08:47;12.40;99.90
8862;DHT22;4799;50.996;4.754;2024-02-15T05:11:13;12.40;99.90
8862;DHT22;4799;50.996;4.754;2024-02-15T05:13:45;12.40;99.90
8862;DHT22;4799;50.996;4.754;2024-02-15T05:16:12;12.40;99.90
8862;DHT22;4799;50.996;4.754;2024-02-15T05:18:38;12.40;99.90
8862;DHT22;4799;50.996;4.754;2024-02-15T05:21:06;12.40;99.90
8862;DHT22;4799;50.996;4.754;2024-02-15T05:23:35;12.40;99.90
8862;DHT22;4799;50.996;4.754;2024-02-15T05:26:02;12.30;99.90
8862;DHT22;4799;50.996;4.754;2024-02-15T05:28:29;12.30;99.90
8862;DHT22;4799;50.996;4.754;2024-02-15T05:33:35;12.40;99.90
8862;DHT22;4799;50.996;4.754;2024-02-15T05:36:01;12.40;99.90
8862;DHT22;4799;50.996;4.754;2024-02-15T05:38:27;12.30;99.90
8862;DHT22;4799;50.996;4.754;2024-02-15T05:40:53;12.30;99.90
8862;DHT22;4799;50.996;4.754;2024-02-15T05:43:19;12.40;99.90
8862;DHT22;4799;50.996;4.754;2024-02-15T05:45:45;12.40;99.90
8862;DHT22;4799;50.996;4.754;2024-02-15T05:48:11;12.30;99.90
8862;DHT22;4799;50.996;4.754;2024-02-15T05:50:38;12.40;99.90
8862;DHT22;4799;50.996;4.754;2024-02-15T05:53:03;12.30;99.90
8862;DHT22;4799;50.996;4.754;2024-02-15T05:55:29;12.30;99.90
8862;DHT22;4799;50.996;4.754;2024-02-15T05:57:59;12.30;99.90
8862;DHT22;4799;50.996;4.754;2024-02-15T06:00:24;12.30;99.90
8862;DHT22;4799;50.996;4.754;2024-02-15T06:02:50;12.30;99.90
8862;DHT22;4799;50.996;4.754;2024-02-15T06:05:18;12.20;99.90
8862;DHT22;4799;50.996;4.754;2024-02-15T06:07:44;12.30;99.90
8862;DHT22;4799;50.996;4.754;2024-02-15T06:10:11;12.30;99.90
8862;DHT22;4799;50.996;4.754;2024-02-15T06:12:37;12.30;99.90
8862;DHT22;4799;50.996;4.754;2024-02-15T06:15:06;12.30;99.90
8862;DHT22;4799;50.996;4.754;2024-02-15T06:17:41;12.30;99.90
8862;DHT22;4799;50.996;4.754;2024-02-15T06:20:11;12.30;99.90
8862;DHT22;4799;50.996;4.754;2024-02-15T06:22:37;12.30;99.90
8862;DHT22;4799;50.996;4.754;2024-02-15T06:25:03;12.30;99.90
8862;DHT22;4799;50.996;4.754;2024-02-15T06:27:31;12.30;99.90
8862;DHT22;4799;50.996;4.754;2024-02-15T06:29:58;12.30;99.90
8862;DHT22;4799;50.996;4.754;2024-02-15T06:32:42;12.30;99.90
8862;DHT22;4799;50.996;4.754;2024-02-15T06:35:43;12.20;99.90
8862;DHT22;4799;50.996;4.754;2024-02-15T06:38:28;12.20;99.90
8862;DHT22;4799;50.996;4.754;2024-02-15T06:41:13;12.20;99.90
8862;DHT22;4799;50.996;4.754;2024-02-15T06:43:38;12.20;99.90
8862;DHT22;4799;50.996;4.754;2024-02-15T06:46:08;12.20;99.90
8862;DHT22;4799;50.996;4.754;2024-02-15T06:48:35;12.20;99.90
8862;DHT22;4799;50.996;4.754;2024-02-15T06:51:01;12.20;99.90
8862;DHT22;4799;50.996;4.754;2024-02-15T06:53:26;12.20;99.90
8862;DHT22;4799;50.996;4.754;2024-02-15T06:55:52;12.20;99.90
8862;DHT22;4799;50.996;4.754;2024-02-15T06:58:18;12.20;99.90
8862;DHT22;4799;50.996;4.754;2024-02-15T07:00:44;12.20;99.90
8862;DHT22;4799;50.996;4.754;2024-02-15T07:03:10;12.20;99.90
8862;DHT22;4799;50.996;4.754;2024-02-15T07:05:38;12.10;99.90
8862;DHT22;4799;50.996;4.754;2024-02-15T07:08:05;12.10;99.90
8862;DHT22;4799;50.996;4.754;2024-02-15T07:10:31;12.20;99.90
8862;DHT22;4799;50.996;4.754;2024-02-15T07:12:57;12.10;99.90
8862;DHT22;4799;50.996;4.754;2024-02-15T07:15:23;12.10;99.90
8862;DHT22;4799;50.996;4.754;2024-02-15T07:17:48;12.10;99.90
8862;DHT22;4799;50.996;4.754;2024-02-15T07:20:15;12.10;99.90
8862;DHT22;4799;50.996;4.754;2024-02-15T07:22:45;12.10;99.90
8862;DHT22;4799;50.996;4.754;2024-02-15T07:25:11;12.00;99.90
8862;DHT22;4799;50.996;4.754;2024-02-15T07:27:37;12.10;99.90
8862;DHT22;4799;50.996;4.754;2024-02-15T07:30:03;12.10;99.90
8862;DHT22;4799;50.996;4.754;2024-02-15T07:32:31;12.10;99.90
8862;DHT22;4799;50.996;4.754;2024-02-15T07:34:57;12.10;99.90
8862;DHT22;4799;50.996;4.754;2024-02-15T07:37:23;12.20;99.90
8862;DHT22;4799;50.996;4.754;2024-02-15T07:39:52;12.20;99.90
8862;DHT22;4799;50.996;4.754;2024-02-15T07:42:18;12.30;99.90
8862;DHT22;4799;50.996;4.754;2024-02-15T07:44:43;12.30;99.90
8862;DHT22;4799;50.996;4.754;2024-02-15T07:47:09;12.40;99.90
8862;DHT22;4799;50.996;4.754;2024-02-15T07:49:38;12.40;99.90
8862;DHT22;4799;50.996;4.754;2024-02-15T07:52:04;12.50;99.90
8862;DHT22;4799;50.996;4.754;2024-02-15T07:54:30;12.50;99.90
8862;DHT22;4799;50.996;4.754;2024-02-15T07:56:59;12.50;99.90
8862;DHT22;4799;50.996;4.754;2024-02-15T07:59:24;12.60;99.90
8862;DHT22;4799;50.996;4.754;2024-02-15T08:01:50;12.60;99.90
8862;DHT22;4799;50.996;4.754;2024-02-15T08:04:16;12.60;99.90
8862;DHT22;4799;50.996;4.754;2024-02-15T08:06:43;12.70;99.90
8862;DHT22;4799;50.996;4.754;2024-02-15T08:09:09;12.70;99.90
8862;DHT22;4799;50.996;4.754;2024-02-15T08:11:42;12.70;99.90
8862;DHT22;4799;50.996;4.754;2024-02-15T08:14:08;12.70;99.90
8862;DHT22;4799;50.996;4.754;2024-02-15T08:16:37;12.80;99.90
8862;DHT22;4799;50.996;4.754;2024-02-15T08:19:06;12.80;99.90
8862;DHT22;4799;50.996;4.754;2024-02-15T08:21:33;12.80;99.90
8862;DHT22;4799;50.996;4.754;2024-02-15T08:24:01;12.90;99.90
8862;DHT22;4799;50.996;4.754;2024-02-15T08:26:37;12.90;99.90
8862;DHT22;4799;50.996;4.754;2024-02-15T08:29:04;12.90;99.90
8862;DHT22;4799;50.996;4.754;2024-02-15T08:31:29;13.00;99.90
8862;DHT22;4799;50.996;4.754;2024-02-15T08:33:59;13.10;99.90
8862;DHT22;4799;50.996;4.754;2024-02-15T08:36:26;13.10;99.90
8862;DHT22;4799;50.996;4.754;2024-02-15T08:38:52;13.20;99.90
8862;DHT22;4799;50.996;4.754;2024-02-15T08:41:17;13.20;99.90
8862;DHT22;4799;50.996;4.754;2024-02-15T08:43:45;13.20;99.90
8862;DHT22;4799;50.996;4.754;2024-02-15T08:46:12;13.30;99.90
8862;DHT22;4799;50.996;4.754;2024-02-15T08:48:38;13.40;99.90
8862;DHT22;4799;50.996;4.754;2024-02-15T08:51:04;13.40;99.90
8862;DHT22;4799;50.996;4.754;2024-02-15T08:55:41;13.60;99.90
8862;DHT22;4799;50.996;4.754;2024-02-15T08:58:07;13.60;99.90
8862;DHT22;4799;50.996;4.754;2024-02-15T09:00:35;13.70;99.90
8862;DHT22;4799;50.996;4.754;2024-02-15T09:03:01;13.80;99.90
8862;DHT22;4799;50.996;4.754;2024-02-15T09:05:26;13.80;99.90
8862;DHT22;4799;50.996;4.754;2024-02-15T09:07:53;13.90;99.90
8862;DHT22;4799;50.996;4.754;2024-02-15T09:10:19;14.00;99.90
8862;DHT22;4799;50.996;4.754;2024-02-15T09:12:48;14.10;99.90
8862;DHT22;4799;50.996;4.754;2024-02-15T09:15:14;14.10;99.90
8862;DHT22;4799;50.996;4.754;2024-02-15T09:17:41;14.20;99.90
8862;DHT22;4799;50.996;4.754;2024-02-15T09:20:15;14.20;99.90
8862;DHT22;4799;50.996;4.754;2024-02-15T09:22:50;14.30;99.90
8862;DHT22;4799;50.996;4.754;2024-02-15T09:25:20;14.40;99.90
8862;DHT22;4799;50.996;4.754;2024-02-15T09:27:46;14.40;99.90
8862;DHT22;4799;50.996;4.754;2024-02-15T09:30:12;14.60;99.90
8862;DHT22;4799;50.996;4.754;2024-02-15T09:32:42;14.60;99.90
8862;DHT22;4799;50.996;4.754;2024-02-15T09:35:09;14.70;99.90
8862;DHT22;4799;50.996;4.754;2024-02-15T09:37:36;14.80;99.90
8862;DHT22;4799;50.996;4.754;2024-02-15T09:40:08;14.90;99.90
8862;DHT22;4799;50.996;4.754;2024-02-15T09:42:35;15.00;99.90
8862;DHT22;4799;50.996;4.754;2024-02-15T09:45:02;15.00;99.90
8862;DHT22;4799;50.996;4.754;2024-02-15T09:47:35;15.10;99.90
8862;DHT22;4799;50.996;4.754;2024-02-15T09:50:05;15.10;99.90
8862;DHT22;4799;50.996;4.754;2024-02-15T09:52:32;15.30;99.90
8862;DHT22;4799;50.996;4.754;2024-02-15T09:55:03;15.30;99.90
8862;DHT22;4799;50.996;4.754;2024-02-15T09:57:29;15.50;99.90
8862;DHT22;4799;50.996;4.754;2024-02-15T09:59:57;15.50;99.90
8862;DHT22;4799;50.996;4.754;2024-02-15T10:02:26;15.70;99.90
8862;DHT22;4799;50.996;4.754;2024-02-15T10:04:53;15.70;99.90
8862;DHT22;4799;50.996;4.754;2024-02-15T10:07:24;15.80;99.90
8862;DHT22;4799;50.996;4.754;2024-02-15T10:09:52;15.80;99.90
8862;DHT22;4799;50.996;4.754;2024-02-15T10:12:18;15.90;99.90
8862;DHT22;4799;50.996;4.754;2024-02-15T10:14:50;16.00;99.90
8862;DHT22;4799;50.996;4.754;2024-02-15T10:17:18;16.10;99.90
8862;DHT22;4799;50.996;4.754;2024-02-15T10:19:44;16.20;99.90
8862;DHT22;4799;50.996;4.754;2024-02-15T10:22:12;16.30;99.90
8862;DHT22;4799;50.996;4.754;2024-02-15T10:24:40;16.30;99.90
8862;DHT22;4799;50.996;4.754;2024-02-15T10:27:06;16.40;99.90
8862;DHT22;4799;50.996;4.754;2024-02-15T10:29:36;16.50;99.90
8862;DHT22;4799;50.996;4.754;2024-02-15T10:32:02;16.50;99.90
8862;DHT22;4799;50.996;4.754;2024-02-15T10:34:29;16.50;99.90
8862;DHT22;4799;50.996;4.754;2024-02-15T10:37:14;16.60;99.90
8862;DHT22;4799;50.996;4.754;2024-02-15T10:39:42;16.60;99.90
8862;DHT22;4799;50.996;4.754;2024-02-15T10:42:08;16.70;99.90
8862;DHT22;4799;50.996;4.754;2024-02-15T10:44:36;16.70;99.90
8862;DHT22;4799;50.996;4.754;2024-02-15T10:47:04;16.80;99.90
8862;DHT22;4799;50.996;4.754;2024-02-15T10:49:33;16.80;99.90
8862;DHT22;4799;50.996;4.754;2024-02-15T10:52:00;16.80;99.90
8862;DHT22;4799;50.996;4.754;2024-02-15T10:54:47;16.80;99.90
8862;DHT22;4799;50.996;4.754;2024-02-15T10:57:20;16.90;99.90
8862;DHT22;4799;50.996;4.754;2024-02-15T10:59:58;16.90;99.90
8862;DHT22;4799;50.996;4.754;2024-02-15T11:02:30;16.90;99.90
8862;DHT22;4799;50.996;4.754;2024-02-15T11:05:03;17.00;99.90
8862;DHT22;4799;50.996;4.754;2024-02-15T11:07:32;17.00;99.90
8862;DHT22;4799;50.996;4.754;2024-02-15T11:09:58;17.10;99.90
8862;DHT22;4799;50.996;4.754;2024-02-15T11:12:25;17.20;99.90
8862;DHT22;4799;50.996;4.754;2024-02-15T11:14:52;17.20;99.90
8862;DHT22;4799;50.996;4.754;2024-02-15T11:20:48;17.40;99.90
8862;DHT22;4799;50.996;4.754;2024-02-15T11:22:57;17.50;99.90
8862;DHT22;4799;50.996;4.754;2024-02-15T11:25:34;17.60;99.90
8862;DHT22;4799;50.996;4.754;2024-02-15T11:30:56;17.60;99.90
8862;DHT22;4799;50.996;4.754;2024-02-15T11:33:28;17.60;99.90
8862;DHT22;4799;50.996;4.754;2024-02-15T11:36:11;17.60;99.90
8862;DHT22;4799;50.996;4.754;2024-02-15T11:38:39;17.70;99.90
8862;DHT22;4799;50.996;4.754;2024-02-15T11:41:07;17.70;99.90
8862;DHT22;4799;50.996;4.754;2024-02-15T11:43:48;17.80;99.90
8862;DHT22;4799;50.996;4.754;2024-02-15T11:46:22;17.80;99.90
8862;DHT22;4799;50.996;4.754;2024-02-15T11:48:51;17.80;99.90
8862;DHT22;4799;50.996;4.754;2024-02-15T11:51:36;17.80;99.90
8862;DHT22;4799;50.996;4.754;2024-02-15T11:54:07;17.70;99.90
8862;DHT22;4799;50.996;4.754;2024-02-15T11:56:53;17.80;99.90
8862;DHT22;4799;50.996;4.754;2024-02-15T11:59:43;17.80;99.90
8862;DHT22;4799;50.996;4.754;2024-02-15T12:02:32;17.70;99.90
8862;DHT22;4799;50.996;4.754;2024-02-15T12:05:17;17.80;99.90
8862;DHT22;4799;50.996;4.754;2024-02-15T12:08:01;17.80;99.90
8862;DHT22;4799;50.996;4.754;2024-02-15T12:10:57;17.80;99.90
8862;DHT22;4799;50.996;4.754;2024-02-15T12:13:41;17.80;99.90
8862;DHT22;4799;50.996;4.754;2024-02-15T12:16:26;17.80;99.90
8862;DHT22;4799;50.996;4.754;2024-02-15T12:19:10;17.80;99.90
8862;DHT22;4799;50.996;4.754;2024-02-15T12:21:37;17.80;99.90
8862;DHT22;4799;50.996;4.754;2024-02-15T12:24:07;17.90;99.90
8862;DHT22;4799;50.996;4.754;2024-02-15T12:26:33;17.90;99.90
8862;DHT22;4799;50.996;4.754;2024-02-15T12:29:00;18.00;99.90
8862;DHT22;4799;50.996;4.754;2024-02-15T12:31:26;18.10;99.90
8862;DHT22;4799;50.996;4.754;2024-02-15T12:34:02;18.10;99.90
8862;DHT22;4799;50.996;4.754;2024-02-15T12:36:35;18.10;99.90
8862;DHT22;4799;50.996;4.754;2024-02-15T12:39:06;18.10;99.90
8862;DHT22;4799;50.996;4.754;2024-02-15T12:41:41;18.10;99.90
8862;DHT22;4799;50.996;4.754;2024-02-15T12:44:07;18.10;99.90
8862;DHT22;4799;50.996;4.754;2024-02-15T12:46:34;18.10;99.90
8862;DHT22;4799;50.996;4.754;2024-02-15T12:49:07;18.10;99.90
8862;DHT22;4799;50.996;4.754;2024-02-15T12:51:33;18.10;99.90
8862;DHT22;4799;50.996;4.754;2024-02-15T12:54:09;18.00;99.90
8862;DHT22;4799;50.996;4.754;2024-02-15T12:56:36;18.00;99.90
8862;DHT22;4799;50.996;4.754;2024-02-15T12:59:02;17.90;99.90
8862;DHT22;4799;50.996;4.754;2024-02-15T13:01:28;17.90;99.90
8862;DHT22;4799;50.996;4.754;2024-02-15T13:03:54;17.90;99.90
8862;DHT22;4799;50.996;4.754;2024-02-15T13:06:20;17.80;99.90
8862;DHT22;4799;50.996;4.754;2024-02-15T13:08:49;17.90;99.90
8862;DHT22;4799;50.996;4.754;2024-02-15T13:11:15;17.90;99.90
8862;DHT22;4799;50.996;4.754;2024-02-15T13:13:41;17.90;99.90
8862;DHT22;4799;50.996;4.754;2024-02-15T13:16:10;18.00;99.90
8862;DHT22;4799;50.996;4.754;2024-02-15T13:18:35;18.10;99.90
8862;DHT22;4799;50.996;4.754;2024-02-15T13:21:02;18.30;99.90
8862;DHT22;4799;50.996;4.754;2024-02-15T13:23:31;18.40;99.90
8862;DHT22;4799;50.996;4.754;2024-02-15T13:25:57;18.60;99.90
8862;DHT22;4799;50.996;4.754;2024-02-15T13:28:27;18.70;99.90
8862;DHT22;4799;50.996;4.754;2024-02-15T13:30:53;18.80;99.90
8862;DHT22;4799;50.996;4.754;2024-02-15T13:33:21;18.80;99.90
8862;DHT22;4799;50.996;4.754;2024-02-15T13:35:47;18.70;99.90
8862;DHT22;4799;50.996;4.754;2024-02-15T13:38:15;18.60;99.90
8862;DHT22;4799;50.996;4.754;2024-02-15T13:40:48;18.60;99.90
8862;DHT22;4799;50.996;4.754;2024-02-15T13:43:17;18.60;99.90
8862;DHT22;4799;50.996;4.754;2024-02-15T13:45:44;18.60;99.90
8862;DHT22;4799;50.996;4.754;2024-02-15T13:48:11;18.60;99.90
8862;DHT22;4799;50.996;4.754;2024-02-15T13:50:40;18.60;99.90
8862;DHT22;4799;50.996;4.754;2024-02-15T13:53:06;18.60;99.90
8862;DHT22;4799;50.996;4.754;2024-02-15T13:55:32;18.60;99.90
8862;DHT22;4799;50.996;4.754;2024-02-15T13:57:58;18.60;99.90
8862;DHT22;4799;50.996;4.754;2024-02-15T14:00:25;18.60;99.90
8862;DHT22;4799;50.996;4.754;2024-02-15T14:02:56;18.60;99.90
8862;DHT22;4799;50.996;4.754;2024-02-15T14:05:24;18.60;99.90
8862;DHT22;4799;50.996;4.754;2024-02-15T14:07:57;18.60;99.90
8862;DHT22;4799;50.996;4.754;2024-02-15T14:10:23;18.60;99.90
8862;DHT22;4799;50.996;4.754;2024-02-15T14:12:50;18.70;99.90
8862;DHT22;4799;50.996;4.754;2024-02-15T14:15:18;18.80;99.90
8862;DHT22;4799;50.996;4.754;2024-02-15T14:17:47;18.90;99.90
8862;DHT22;4799;50.996;4.754;2024-02-15T14:20:13;18.90;99.90
8862;DHT22;4799;50.996;4.754;2024-02-15T14:22:47;18.90;99.90
8862;DHT22;4799;50.996;4.754;2024-02-15T14:25:18;18.90;99.90
8862;DHT22;4799;50.996;4.754;2024-02-15T14:27:44;18.90;99.90
8862;DHT22;4799;50.996;4.754;2024-02-15T14:30:11;18.90;99.90
8862;DHT22;4799;50.996;4.754;2024-02-15T14:32:55;18.80;99.90
8862;DHT22;4799;50.996;4.754;2024-02-15T14:35:35;18.70;99.90
8862;DHT22;4799;50.996;4.754;2024-02-15T14:38:11;18.60;99.90
8862;DHT22;4799;50.996;4.754;2024-02-15T14:40:45;18.50;99.90
8862;DHT22;4799;50.996;4.754;2024-02-15T14:43:20;18.40;99.90
8862;DHT22;4799;50.996;4.754;2024-02-15T14:45:47;18.40;99.90
8862;DHT22;4799;50.996;4.754;2024-02-15T14:48:13;18.40;99.90
8862;DHT22;4799;50.996;4.754;2024-02-15T14:50:39;18.40;99.90
8862;DHT22;4799;50.996;4.754;2024-02-15T14:53:05;18.30;99.90
8862;DHT22;4799;50.996;4.754;2024-02-15T14:55:34;18.30;99.90
8862;DHT22;4799;50.996;4.754;2024-02-15T14:58:00;18.30;99.90
8862;DHT22;4799;50.996;4.754;2024-02-15T15:00:26;18.20;99.90
8862;DHT22;4799;50.996;4.754;2024-02-15T15:02:53;18.30;99.90
8862;DHT22;4799;50.996;4.754;2024-02-15T15:05:22;18.20;99.90
8862;DHT22;4799;50.996;4.754;2024-02-15T15:08:06;18.10;99.90
8862;DHT22;4799;50.996;4.754;2024-02-15T15:10:50;18.00;99.90
8862;DHT22;4799;50.996;4.754;2024-02-15T15:13:35;17.90;99.90
8862;DHT22;4799;50.996;4.754;2024-02-15T15:16:01;17.80;99.90
8862;DHT22;4799;50.996;4.754;2024-02-15T15:18:33;17.80;99.90
8862;DHT22;4799;50.996;4.754;2024-02-15T15:21:02;17.70;99.90
8862;DHT22;4799;50.996;4.754;2024-02-15T15:23:28;17.70;99.90
8862;DHT22;4799;50.996;4.754;2024-02-15T15:26:00;17.60;99.90
8862;DHT22;4799;50.996;4.754;2024-02-15T15:28:27;17.60;99.90
8862;DHT22;4799;50.996;4.754;2024-02-15T15:30:53;17.50;99.90
8862;DHT22;4799;50.996;4.754;2024-02-15T15:33:20;17.40;99.90
8862;DHT22;4799;50.996;4.754;2024-02-15T15:35:47;17.40;99.90
8862;DHT22;4799;50.996;4.754;2024-02-15T15:38:14;17.30;99.90
8862;DHT22;4799;50.996;4.754;2024-02-15T15:40:40;17.30;99.90
8862;DHT22;4799;50.996;4.754;2024-02-15T15:43:07;17.20;99.90
8862;DHT22;4799;50.996;4.754;2024-02-15T15:45:34;17.20;99.90
8862;DHT22;4799;50.996;4.754;2024-02-15T15:48:01;17.10;99.90
8862;DHT22;4799;50.996;4.754;2024-02-15T15:50:27;17.10;99.90
8862;DHT22;4799;50.996;4.754;2024-02-15T15:53:03;17.10;99.90
8862;DHT22;4799;50.996;4.754;2024-02-15T15:55:29;17.10;99.90
8862;DHT22;4799;50.996;4.754;2024-02-15T15:57:55;17.00;99.90
8862;DHT22;4799;50.996;4.754;2024-02-15T16:00:22;16.90;99.90
8862;DHT22;4799;50.996;4.754;2024-02-15T16:02:49;16.80;99.90
8862;DHT22;4799;50.996;4.754;2024-02-15T16:05:17;16.80;99.90
8862;DHT22;4799;50.996;4.754;2024-02-15T16:07:44;16.70;99.90
8862;DHT22;4799;50.996;4.754;2024-02-15T16:10:10;16.60;99.90
8862;DHT22;4799;50.996;4.754;2024-02-15T16:12:41;16.50;99.90
8862;DHT22;4799;50.996;4.754;2024-02-15T16:15:11;16.30;99.90
8862;DHT22;4799;50.996;4.754;2024-02-15T16:17:39;16.20;99.90
8862;DHT22;4799;50.996;4.754;2024-02-15T16:20:08;16.10;99.90
8862;DHT22;4799;50.996;4.754;2024-02-15T16:22:38;16.00;99.90